Terminal Aerodrome Forecast
Issued by NWS Boise, ID

Home | Current Version | Previous Version | Text Only | Print | Product List | Glossary On
Versions: 1 2 3 4 5 6 7 8 9 10 11 12 13 14 15 16 17 18 19 20 21 22 23
000
FTUS45 KBOI 312329
TAFBOI
TAF
KBOI 312329Z 0100/0124 30009KT P6SM SKC
     FM010400 14005KT P6SM SKC
     FM012100 30007KT P6SM SCT230=

USA.gov is the U.S. government's official web portal to all federal, state and local government web resources and services.